Time;durP1;ratioP1;P1;durP2;ratioP2;P2;SDS_P1;SDS_P2;PMS_P1;PMS_P2;Temp;Humidity;BMP_temperature;BMP_pressure;BME280_temperature;BME280_humidity;BME280_pressure;Samples;Min_cycle;Max_cycle;Signal;HPM_P1;HPM_P2
2022/10/08 00:00:52;;;;;;;17.05;2.65;;;12.00;99.90;;;;;;5048519;28;20129;-64
2022/10/08 00:03:20;;;;;;;12.48;2.42;;;12.00;99.90;;;;;;5058245;28;20135;-65
2022/10/08 00:05:56;;;;;;;11.27;2.13;;;12.00;99.90;;;;;;5049459;28;20054;-65
2022/10/08 00:08:23;;;;;;;11.77;2.25;;;12.00;99.90;;;;;;5052934;28;20064;-65
2022/10/08 00:10:53;;;;;;;13.95;3.22;;;12.00;99.90;;;;;;5029590;28;20054;-65
2022/10/08 00:13:22;;;;;;;15.65;3.13;;;12.00;99.90;;;;;;5050433;28;20055;-64
2022/10/08 00:15:48;;;;;;;15.75;3.35;;;11.90;99.90;;;;;;5016894;28;20061;-63
2022/10/08 00:18:15;;;;;;;11.60;2.45;;;11.80;99.90;;;;;;5048737;28;20045;-64
2022/10/08 00:20:42;;;;;;;15.07;3.50;;;11.80;99.90;;;;;;5050333;28;20059;-64
2022/10/08 00:23:09;;;;;;;15.02;3.17;;;11.80;99.90;;;;;;5045699;28;20124;-65
2022/10/08 00:25:41;;;;;;;15.77;3.28;;;11.80;99.90;;;;;;5035003;28;20049;-65
2022/10/08 00:28:08;;;;;;;18.08;3.42;;;11.80;99.90;;;;;;5026374;28;20089;-65
2022/10/08 00:30:37;;;;;;;13.18;2.83;;;11.80;99.90;;;;;;5035106;28;20115;-64
2022/10/08 00:33:03;;;;;;;22.30;2.83;;;11.80;99.90;;;;;;5042667;28;20041;-64
2022/10/08 00:35:37;;;;;;;9.95;1.88;;;11.70;99.90;;;;;;5034774;28;20045;-64
2022/10/08 00:38:04;;;;;;;18.20;5.68;;;11.70;99.90;;;;;;5025637;28;20563;-64
2022/10/08 00:40:40;;;;;;;20.90;5.00;;;11.60;99.90;;;;;;5035974;28;20045;-63
2022/10/08 00:43:15;;;;;;;21.70;3.53;;;11.60;99.90;;;;;;5027323;28;20508;-64
2022/10/08 00:45:46;;;;;;;13.98;3.05;;;11.50;99.90;;;;;;4833859;28;10001061;-64
2022/10/08 00:48:19;;;;;;;16.08;3.30;;;11.50;99.90;;;;;;5038783;28;20267;-66
2022/10/08 00:50:46;;;;;;;12.93;2.95;;;11.50;99.90;;;;;;5035756;28;20059;-65
2022/10/08 00:53:13;;;;;;;22.33;3.13;;;11.50;99.90;;;;;;5028288;28;20148;-65
2022/10/08 00:55:40;;;;;;;18.10;3.10;;;11.40;99.90;;;;;;5034165;28;20050;-65
2022/10/08 00:58:19;;;;;;;14.18;2.65;;;11.40;99.90;;;;;;5046053;28;20045;-64
2022/10/08 01:00:47;;;;;;;16.10;3.50;;;11.40;99.90;;;;;;5000576;28;20128;-64
2022/10/08 01:03:13;;;;;;;16.98;4.07;;;11.40;99.90;;;;;;5028479;28;20045;-64
2022/10/08 01:05:56;;;;;;;23.13;3.40;;;11.40;99.90;;;;;;5016047;28;20049;-64
2022/10/08 01:11:57;;;;;;;13.50;2.65;;;11.40;99.90;;;;;;5034735;28;20049;-65
2022/10/08 01:14:58;;;;;;;18.77;3.35;;;11.30;99.90;;;;;;5044455;28;20385;-64
2022/10/08 01:17:52;;;;;;;18.25;2.88;;;11.30;99.90;;;;;;5032068;28;20412;-64
2022/10/08 01:20:49;;;;;;;10.38;2.85;;;11.30;99.90;;;;;;5040313;28;20060;-64
2022/10/08 01:23:21;;;;;;;21.52;4.18;;;11.30;99.90;;;;;;5042686;28;20049;-65
2022/10/08 01:25:55;;;;;;;12.88;2.70;;;11.30;99.90;;;;;;5040339;28;20045;-64
2022/10/08 01:28:31;;;;;;;21.70;3.38;;;11.30;99.90;;;;;;5044814;28;20059;-65
2022/10/08 01:31:06;;;;;;;17.77;3.28;;;11.20;99.90;;;;;;5038384;28;20041;-64
2022/10/08 01:33:35;;;;;;;12.88;4.15;;;11.20;99.90;;;;;;5022447;28;20353;-65
2022/10/08 01:36:01;;;;;;;9.50;2.88;;;11.20;99.90;;;;;;5020112;28;20493;-65
2022/10/08 01:38:29;;;;;;;10.98;2.80;;;11.10;99.90;;;;;;5037967;28;20491;-64
2022/10/08 01:40:58;;;;;;;13.65;2.97;;;11.00;99.90;;;;;;5015439;28;20397;-64
2022/10/08 01:43:27;;;;;;;14.02;2.65;;;11.00;99.90;;;;;;5032049;28;20431;-64
2022/10/08 01:45:57;;;;;;;17.15;2.97;;;11.00;99.90;;;;;;4999401;28;20046;-64
2022/10/08 01:48:27;;;;;;;24.17;2.97;;;11.00;99.90;;;;;;5030367;28;20046;-64
2022/10/08 01:51:16;;;;;;;11.98;2.58;;;11.00;99.90;;;;;;5015238;28;20539;-64
2022/10/08 01:53:44;;;;;;;11.52;3.45;;;11.00;99.90;;;;;;5030905;28;20947;-64
2022/10/08 01:56:13;;;;;;;13.38;3.22;;;10.90;99.90;;;;;;5041830;28;20132;-64
2022/10/08 01:58:57;;;;;;;13.63;2.38;;;10.90;99.90;;;;;;5016541;28;20045;-64
2022/10/08 02:01:58;;;;;;;13.73;2.85;;;10.90;99.90;;;;;;5022958;28;20049;-64
2022/10/08 02:04:32;;;;;;;20.27;3.00;;;10.90;99.90;;;;;;5030680;28;20397;-64
2022/10/08 02:07:06;;;;;;;14.48;2.33;;;10.80;99.90;;;;;;5015804;28;20052;-64
2022/10/08 02:09:35;;;;;;;16.40;3.67;;;10.80;99.90;;;;;;5037709;28;20044;-64
2022/10/08 02:12:02;;;;;;;24.20;3.47;;;10.80;99.90;;;;;;5021435;28;20052;-64
2022/10/08 02:14:29;;;;;;;19.35;3.83;;;10.70;99.90;;;;;;5035032;28;20056;-64
2022/10/08 02:17:05;;;;;;;11.20;2.72;;;10.70;99.90;;;;;;5023598;28;20057;-64
2022/10/08 02:19:55;;;;;;;14.77;2.83;;;10.70;99.90;;;;;;5034834;28;20049;-64
2022/10/08 02:22:25;;;;;;;18.80;2.97;;;10.70;99.90;;;;;;4995314;28;20046;-64
2022/10/08 02:24:57;;;;;;;14.02;3.22;;;10.70;99.90;;;;;;5018484;28;20049;-64
2022/10/08 02:27:32;;;;;;;16.27;2.70;;;10.70;99.90;;;;;;5022527;28;20063;-65
2022/10/08 02:30:08;;;;;;;9.45;2.25;;;10.70;99.90;;;;;;5004507;28;20080;-63
2022/10/08 02:32:49;;;;;;;13.85;2.80;;;10.60;99.90;;;;;;5022027;28;20056;-65
2022/10/08 02:35:24;;;;;;;16.48;2.65;;;10.60;99.90;;;;;;5018308;28;20047;-62
2022/10/08 02:38:04;;;;;;;16.05;2.58;;;10.50;99.90;;;;;;4998465;28;20056;-63
2022/10/08 02:40:30;;;;;;;16.02;3.20;;;10.50;99.90;;;;;;5036754;28;20127;-63
2022/10/08 02:43:00;;;;;;;15.50;2.92;;;10.50;99.90;;;;;;5021432;28;20049;-63
2022/10/08 02:45:33;;;;;;;13.88;2.50;;;10.50;99.90;;;;;;5017138;28;20042;-63
2022/10/08 02:48:04;;;;;;;14.85;2.70;;;10.40;99.90;;;;;;5023034;28;20092;-63
2022/10/08 02:50:31;;;;;;;12.68;2.30;;;10.40;99.90;;;;;;5000324;28;20041;-63
2022/10/08 02:52:58;;;;;;;16.80;3.30;;;10.40;99.90;;;;;;5013751;28;20049;-63
2022/10/08 02:56:04;;;;;;;14.68;2.70;;;10.40;99.90;;;;;;5031618;28;20045;-63
2022/10/08 02:58:31;;;;;;;16.13;3.17;;;10.40;99.90;;;;;;5044481;28;20488;-64
2022/10/08 03:01:09;;;;;;;15.35;2.97;;;10.40;99.90;;;;;;5030722;28;20049;-64
2022/10/08 03:03:40;;;;;;;11.85;2.83;;;10.30;99.90;;;;;;5043624;28;20131;-64
2022/10/08 03:06:08;;;;;;;13.95;2.50;;;10.30;99.90;;;;;;5016348;28;20045;-63
2022/10/08 03:08:36;;;;;;;11.55;2.30;;;10.30;99.90;;;;;;5007986;28;20056;-64
2022/10/08 03:11:03;;;;;;;15.02;3.13;;;10.30;99.90;;;;;;5016933;28;20049;-63
2022/10/08 03:13:29;;;;;;;14.00;2.42;;;10.30;99.90;;;;;;5022418;28;20045;-63
2022/10/08 03:15:56;;;;;;;9.50;2.25;;;10.30;99.90;;;;;;5015929;28;20492;-63
2022/10/08 03:18:24;;;;;;;19.45;3.10;;;10.30;99.90;;;;;;5017424;28;20045;-64
2022/10/08 03:20:51;;;;;;;19.33;4.97;;;10.20;99.90;;;;;;5017658;28;20049;-63
2022/10/08 03:23:17;;;;;;;7.40;1.92;;;10.20;99.90;;;;;;5021033;28;20049;-64
2022/10/08 03:25:44;;;;;;;18.30;2.97;;;10.20;99.90;;;;;;5052223;28;20051;-63
2022/10/08 03:28:11;;;;;;;14.55;2.25;;;10.10;99.90;;;;;;5042208;28;20058;-64
2022/10/08 03:30:38;;;;;;;13.73;2.42;;;10.10;99.90;;;;;;5055575;28;20110;-64
2022/10/08 03:33:05;;;;;;;14.52;2.38;;;10.10;99.90;;;;;;5042684;28;20064;-64
2022/10/08 03:35:31;;;;;;;9.38;2.63;;;10.10;99.90;;;;;;5055001;28;20053;-64
2022/10/08 03:37:58;;;;;;;18.05;2.78;;;10.00;99.90;;;;;;5050605;28;20060;-64
2022/10/08 03:40:25;;;;;;;14.43;3.08;;;10.00;99.90;;;;;;5037836;28;20140;-63
2022/10/08 03:42:52;;;;;;;11.55;2.47;;;10.00;99.90;;;;;;5042246;28;20049;-64
2022/10/08 03:45:18;;;;;;;9.30;2.25;;;10.00;99.90;;;;;;5022369;28;20061;-64
2022/10/08 03:47:50;;;;;;;14.30;2.63;;;10.00;99.90;;;;;;5039753;28;20136;-64
2022/10/08 03:50:17;;;;;;;10.75;2.78;;;9.90;99.90;;;;;;5041943;28;20068;-64
2022/10/08 03:52:44;;;;;;;9.05;2.05;;;9.90;99.90;;;;;;5020308;28;20037;-64
2022/10/08 03:55:11;;;;;;;12.23;2.55;;;9.90;99.90;;;;;;5043406;28;20128;-63
2022/10/08 03:57:38;;;;;;;15.75;2.78;;;9.90;99.90;;;;;;5036487;28;20121;-64
2022/10/08 04:00:05;;;;;;;11.50;2.53;;;9.90;99.90;;;;;;5026094;28;20308;-64
2022/10/08 04:02:32;;;;;;;11.30;1.90;;;9.90;99.90;;;;;;5051946;28;20045;-63
2022/10/08 04:04:59;;;;;;;16.42;2.88;;;9.90;99.90;;;;;;5032265;28;20099;-63
2022/10/08 04:07:26;;;;;;;18.92;2.33;;;9.90;99.90;;;;;;5053781;28;20470;-63
2022/10/08 04:09:53;;;;;;;25.98;2.35;;;9.90;99.90;;;;;;5046245;28;20075;-63
2022/10/08 04:12:19;;;;;;;9.70;3.03;;;9.90;99.90;;;;;;5034619;28;20055;-63
2022/10/08 04:14:46;;;;;;;16.65;3.00;;;9.90;99.90;;;;;;5029112;28;20063;-63
2022/10/08 04:17:13;;;;;;;14.00;2.78;;;9.90;99.90;;;;;;5034072;28;20063;-64
2022/10/08 04:19:40;;;;;;;13.00;2.17;;;9.90;99.90;;;;;;5046713;28;20399;-64
2022/10/08 04:22:06;;;;;;;13.98;1.88;;;9.80;99.90;;;;;;5034494;28;20049;-64
2022/10/08 04:24:33;;;;;;;7.50;2.05;;;9.80;99.90;;;;;;5043907;28;20544;-64
2022/10/08 04:27:00;;;;;;;9.63;2.20;;;9.80;99.90;;;;;;5036428;28;20056;-64
2022/10/08 04:29:26;;;;;;;14.35;3.08;;;9.80;99.90;;;;;;5041687;28;20059;-64
2022/10/08 04:31:53;;;;;;;9.45;2.22;;;9.80;99.90;;;;;;5038592;28;20412;-64
2022/10/08 04:34:20;;;;;;;14.13;2.33;;;9.70;99.90;;;;;;5021729;28;20044;-64
2022/10/08 04:36:46;;;;;;;12.98;2.40;;;9.70;99.90;;;;;;5040838;28;20064;-63
2022/10/08 04:39:13;;;;;;;11.43;2.00;;;9.60;99.90;;;;;;5018878;28;20045;-64
2022/10/08 04:41:40;;;;;;;18.35;3.60;;;9.60;99.90;;;;;;5043323;28;20068;-64
2022/10/08 04:44:07;;;;;;;10.30;2.85;;;9.60;99.90;;;;;;5035176;28;20045;-64
2022/10/08 04:46:34;;;;;;;17.70;2.90;;;9.60;99.90;;;;;;5027087;28;20408;-64
2022/10/08 04:49:01;;;;;;;11.85;2.55;;;9.60;99.90;;;;;;5034848;28;20054;-64
2022/10/08 04:51:27;;;;;;;7.85;2.20;;;9.50;99.90;;;;;;5011001;28;20124;-64
2022/10/08 04:53:55;;;;;;;13.10;2.83;;;9.50;99.90;;;;;;5034064;28;20085;-64
2022/10/08 04:56:27;;;;;;;9.32;1.98;;;9.50;99.90;;;;;;5045929;28;20041;-64
2022/10/08 04:58:54;;;;;;;15.77;3.55;;;9.50;99.90;;;;;;5033751;28;20515;-63
2022/10/08 05:01:21;;;;;;;12.15;2.15;;;9.50;99.90;;;;;;5045812;28;20643;-63
2022/10/08 05:03:49;;;;;;;14.57;2.17;;;9.50;99.90;;;;;;5024346;28;20073;-63
2022/10/08 05:06:17;;;;;;;12.57;2.33;;;9.50;99.90;;;;;;5040973;28;20073;-64
2022/10/08 05:08:44;;;;;;;8.82;1.98;;;9.50;99.90;;;;;;5036913;28;20049;-64
2022/10/08 05:11:11;;;;;;;12.32;3.15;;;9.50;99.90;;;;;;5016972;28;20132;-64
2022/10/08 05:13:38;;;;;;;11.45;2.00;;;9.50;99.90;;;;;;5052654;28;20053;-65
2022/10/08 05:16:09;;;;;;;11.35;2.80;;;9.40;99.90;;;;;;5028538;28;20128;-63
2022/10/08 05:18:36;;;;;;;12.63;2.10;;;9.40;99.90;;;;;;5018008;28;20053;-64
2022/10/08 05:21:06;;;;;;;8.30;1.70;;;9.40;99.90;;;;;;5033104;28;20053;-64
2022/10/08 05:23:33;;;;;;;11.65;2.85;;;9.50;99.90;;;;;;5035140;28;20037;-64
2022/10/08 05:26:01;;;;;;;12.57;2.20;;;9.50;99.90;;;;;;5033993;28;20041;-65
2022/10/08 05:28:28;;;;;;;8.43;2.28;;;9.50;99.90;;;;;;5045485;28;20080;-63
2022/10/08 05:30:59;;;;;;;11.95;2.25;;;9.50;99.90;;;;;;5050331;28;20118;-64
2022/10/08 05:33:26;;;;;;;12.77;2.17;;;9.50;99.90;;;;;;5026417;28;20055;-64
2022/10/08 05:35:53;;;;;;;13.65;1.88;;;9.50;99.90;;;;;;5051261;28;20528;-64
2022/10/08 05:38:20;;;;;;;8.15;2.40;;;9.50;99.90;;;;;;5041231;28;20049;-64
2022/10/08 05:40:46;;;;;;;11.90;2.17;;;9.50;99.90;;;;;;5051493;28;20053;-63
2022/10/08 05:43:13;;;;;;;21.15;2.92;;;9.50;99.90;;;;;;5018629;28;20684;-64
2022/10/08 05:45:48;;;;;;;11.82;2.63;;;9.50;99.90;;;;;;5052532;28;20049;-65
2022/10/08 05:48:15;;;;;;;17.65;2.47;;;9.50;99.90;;;;;;5019564;28;20502;-63
2022/10/08 05:50:42;;;;;;;17.17;2.28;;;9.50;99.90;;;;;;5034916;28;20053;-62
2022/10/08 05:53:08;;;;;;;11.63;2.15;;;9.40;99.90;;;;;;5039675;28;20107;-63
2022/10/08 05:55:35;;;;;;;13.38;2.00;;;9.40;99.90;;;;;;5052789;28;20128;-63
2022/10/08 05:58:02;;;;;;;9.77;2.08;;;9.40;99.90;;;;;;5039761;28;20041;-64
2022/10/08 06:00:28;;;;;;;12.32;2.58;;;9.40;99.90;;;;;;5052454;28;20059;-64
2022/10/08 06:02:55;;;;;;;18.40;3.47;;;9.30;99.90;;;;;;5041359;28;20519;-65
2022/10/08 06:05:22;;;;;;;14.20;2.20;;;9.30;99.90;;;;;;5050802;28;20418;-64
2022/10/08 06:07:51;;;;;;;17.60;2.60;;;9.30;99.90;;;;;;5043277;28;20403;-64
2022/10/08 06:10:18;;;;;;;13.25;3.55;;;9.30;99.90;;;;;;5031168;28;20557;-64
2022/10/08 06:12:47;;;;;;;16.15;2.95;;;9.20;99.90;;;;;;5045590;28;20487;-64
2022/10/08 06:15:14;;;;;;;12.65;2.40;;;9.20;99.90;;;;;;5029065;28;20048;-63
2022/10/08 06:17:41;;;;;;;10.88;2.20;;;9.20;99.90;;;;;;5047467;28;20536;-64
2022/10/08 06:20:08;;;;;;;11.65;3.05;;;9.20;99.90;;;;;;5037989;28;20053;-64
2022/10/08 06:22:35;;;;;;;13.52;2.95;;;9.20;99.90;;;;;;5025540;28;20048;-64
2022/10/08 06:25:02;;;;;;;13.80;3.05;;;9.20;99.90;;;;;;5044621;28;20076;-64
2022/10/08 06:27:29;;;;;;;14.85;2.80;;;9.20;99.90;;;;;;5043376;28;20051;-64
2022/10/08 06:29:55;;;;;;;13.98;2.45;;;9.10;99.90;;;;;;5040472;28;20052;-64
2022/10/08 06:32:22;;;;;;;9.68;2.28;;;9.10;99.90;;;;;;5042183;28;20128;-64
2022/10/08 06:34:49;;;;;;;11.57;2.47;;;9.10;99.90;;;;;;5042233;28;20068;-63
2022/10/08 06:37:16;;;;;;;8.13;2.22;;;9.10;99.90;;;;;;5040183;28;20051;-64
2022/10/08 06:39:43;;;;;;;14.80;2.08;;;9.10;99.90;;;;;;5006770;28;20045;-64
2022/10/08 06:42:14;;;;;;;10.93;2.40;;;9.20;99.90;;;;;;5023139;28;20456;-64
2022/10/08 06:44:41;;;;;;;7.88;2.28;;;9.20;99.90;;;;;;5026496;28;20067;-64
2022/10/08 06:47:07;;;;;;;11.65;2.10;;;9.20;99.90;;;;;;5048966;28;20048;-64
2022/10/08 06:49:34;;;;;;;10.35;2.50;;;9.20;99.90;;;;;;5047391;28;20087;-64
2022/10/08 06:52:01;;;;;;;12.30;2.53;;;9.20;99.90;;;;;;5033081;28;20140;-64
2022/10/08 06:54:28;;;;;;;9.60;2.85;;;9.30;99.90;;;;;;4690035;28;10000566;-63
2022/10/08 06:56:55;;;;;;;12.15;2.63;;;9.30;99.90;;;;;;5021595;28;20046;-64
2022/10/08 06:59:21;;;;;;;8.38;1.98;;;9.30;99.90;;;;;;5023208;28;20041;-64
2022/10/08 07:01:48;;;;;;;13.52;2.00;;;9.30;99.90;;;;;;5037197;28;20042;-63
2022/10/08 07:04:15;;;;;;;10.73;2.65;;;9.30;99.90;;;;;;5036788;28;20041;-65
2022/10/08 07:06:42;;;;;;;12.50;2.58;;;9.30;99.90;;;;;;5038739;28;20040;-65
2022/10/08 07:09:09;;;;;;;9.45;2.35;;;9.40;99.90;;;;;;5039986;28;20045;-64
2022/10/08 07:11:37;;;;;;;12.05;1.90;;;9.40;99.90;;;;;;5019973;28;20369;-64
2022/10/08 07:14:04;;;;;;;9.38;2.15;;;9.40;99.90;;;;;;5033074;28;20041;-63
2022/10/08 07:16:30;;;;;;;19.73;2.47;;;9.40;99.90;;;;;;5039604;28;20045;-63
2022/10/08 07:18:57;;;;;;;14.07;2.45;;;9.40;99.90;;;;;;5029493;28;20054;-64
2022/10/08 07:21:25;;;;;;;10.02;2.20;;;9.50;99.90;;;;;;5038902;28;20045;-64
2022/10/08 07:23:52;;;;;;;10.57;2.20;;;9.50;99.90;;;;;;5011418;28;20053;-65
2022/10/08 07:26:21;;;;;;;14.13;2.33;;;9.50;99.90;;;;;;5043287;28;20073;-66
2022/10/08 07:29:05;;;;;;;9.90;1.98;;;9.50;99.90;;;;;;5027855;28;20128;-66
2022/10/08 07:31:33;;;;;;;13.48;1.70;;;9.60;99.90;;;;;;5015341;28;20049;-65
2022/10/08 07:34:01;;;;;;;14.82;2.80;;;9.60;99.90;;;;;;5032459;28;20053;-65
2022/10/08 07:36:28;;;;;;;15.60;2.00;;;9.60;99.90;;;;;;5016948;28;20051;-65
2022/10/08 07:38:56;;;;;;;13.52;2.53;;;9.70;99.90;;;;;;5047660;28;20064;-65
2022/10/08 07:41:23;;;;;;;15.10;2.88;;;9.70;99.90;;;;;;5039770;28;20393;-65
2022/10/08 07:43:53;;;;;;;9.27;2.53;;;9.80;99.90;;;;;;5043902;28;20057;-67
2022/10/08 07:46:20;;;;;;;16.42;1.60;;;9.80;99.90;;;;;;5021297;28;20513;-67
2022/10/08 07:48:47;;;;;;;13.43;3.83;;;9.90;99.90;;;;;;5018033;28;20049;-66
2022/10/08 07:51:16;;;;;;;8.80;2.58;;;9.90;99.90;;;;;;5033976;28;20041;-66
2022/10/08 07:53:42;;;;;;;10.02;2.28;;;9.90;99.90;;;;;;5018884;28;20056;-65
2022/10/08 07:56:10;;;;;;;13.13;2.55;;;10.00;99.90;;;;;;5035459;28;20616;-66
2022/10/08 07:58:37;;;;;;;11.38;2.30;;;10.00;99.90;;;;;;5026859;28;20049;-65
2022/10/08 08:01:06;;;;;;;10.73;2.38;;;10.10;99.90;;;;;;5031065;28;20400;-65
2022/10/08 08:03:34;;;;;;;7.63;2.05;;;10.10;99.90;;;;;;5007331;28;20053;-65
2022/10/08 08:06:14;;;;;;;12.50;1.80;;;10.10;99.90;;;;;;5033879;28;20053;-65
2022/10/08 08:08:42;;;;;;;7.47;1.88;;;10.20;99.90;;;;;;5018101;28;20141;-64
2022/10/08 08:11:11;;;;;;;11.55;1.67;;;10.30;99.90;;;;;;5011634;28;20048;-66
2022/10/08 08:13:38;;;;;;;12.77;2.05;;;10.30;99.90;;;;;;5041377;28;20045;-65
2022/10/08 08:16:09;;;;;;;15.18;1.80;;;10.40;99.90;;;;;;5035517;28;20049;-65
2022/10/08 08:18:38;;;;;;;7.72;1.95;;;10.40;99.90;;;;;;5024811;28;20056;-66
2022/10/08 08:21:06;;;;;;;15.27;3.17;;;10.50;99.90;;;;;;5032394;28;20524;-67
2022/10/08 08:23:35;;;;;;;9.40;1.92;;;10.60;99.90;;;;;;5006296;28;20048;-66
2022/10/08 08:26:21;;;;;;;7.18;1.83;;;10.70;99.90;;;;;;5036542;28;20409;-66
2022/10/08 08:28:52;;;;;;;9.55;2.67;;;10.70;99.90;;;;;;5012868;28;20081;-66
2022/10/08 08:31:20;;;;;;;7.78;2.42;;;10.80;99.90;;;;;;5031461;28;20107;-66
2022/10/08 08:33:49;;;;;;;9.45;2.05;;;10.90;99.90;;;;;;5041523;28;20057;-67
2022/10/08 08:36:17;;;;;;;3.67;1.33;;;10.90;99.90;;;;;;5030682;28;20128;-67
2022/10/08 08:38:44;;;;;;;12.25;1.70;;;11.00;99.90;;;;;;5050243;28;20045;-65
2022/10/08 08:41:37;;;;;;;9.43;1.60;;;11.20;99.90;;;;;;5016217;28;20055;-66
2022/10/08 08:44:12;;;;;;;17.92;2.67;;;11.40;99.90;;;;;;5026924;28;20053;-66
2022/10/08 08:46:42;;;;;;;18.27;3.90;;;11.70;99.90;;;;;;5000634;28;20056;-65
2022/10/08 08:49:51;;;;;;;9.52;1.92;;;11.80;99.90;;;;;;5025398;28;20071;-65
2022/10/08 08:52:22;;;;;;;12.13;1.83;;;12.10;99.90;;;;;;4947985;28;20472;-66
2022/10/08 08:54:49;;;;;;;10.02;2.65;;;12.20;99.90;;;;;;5034569;28;20053;-65
2022/10/08 08:57:30;;;;;;;13.57;2.10;;;12.30;99.90;;;;;;5035243;28;20131;-66
2022/10/08 09:00:03;;;;;;;8.88;1.58;;;12.50;99.90;;;;;;5040494;28;20501;-65
2022/10/08 09:02:37;;;;;;;9.48;1.80;;;12.70;99.90;;;;;;5017050;28;20053;-65
2022/10/08 09:05:06;;;;;;;14.07;2.92;;;12.80;99.90;;;;;;5025363;28;20487;-66
2022/10/08 09:07:48;;;;;;;15.77;2.58;;;12.80;99.90;;;;;;5016086;28;20073;-66
2022/10/08 09:10:21;;;;;;;12.00;2.00;;;12.70;99.90;;;;;;4998753;28;20064;-66
2022/10/08 09:12:49;;;;;;;11.70;2.10;;;12.60;99.90;;;;;;5033015;28;20089;-66
2022/10/08 09:15:26;;;;;;;14.85;2.88;;;12.50;99.90;;;;;;5011688;28;20069;-66
2022/10/08 09:17:53;;;;;;;14.35;2.47;;;12.40;99.90;;;;;;5030426;28;20092;-65
2022/10/08 09:20:22;;;;;;;12.05;2.33;;;12.30;99.90;;;;;;5041194;28;20140;-66
2022/10/08 09:22:49;;;;;;;7.03;1.85;;;12.30;99.90;;;;;;5018102;28;20063;-65
2022/10/08 09:25:24;;;;;;;17.42;2.13;;;12.30;99.90;;;;;;5036680;28;20045;-65
2022/10/08 09:27:55;;;;;;;10.05;1.98;;;12.20;99.90;;;;;;5047651;28;20053;-66
2022/10/08 09:30:33;;;;;;;13.07;2.38;;;12.30;99.90;;;;;;5023651;28;20091;-66
2022/10/08 09:33:25;;;;;;;13.48;1.85;;;12.30;99.90;;;;;;4995974;28;20075;-66
2022/10/08 09:35:52;;;;;;;7.38;1.63;;;12.30;99.90;;;;;;5022861;28;20053;-66
2022/10/08 09:38:25;;;;;;;16.58;2.45;;;12.30;99.90;;;;;;5011796;28;20045;-65
2022/10/08 09:41:27;;;;;;;15.50;3.15;;;12.30;99.90;;;;;;5004426;28;20414;-65
2022/10/08 09:44:21;;;;;;;9.65;1.65;;;12.40;99.90;;;;;;4979157;28;20462;-66
2022/10/08 09:46:48;;;;;;;17.60;2.30;;;12.50;99.90;;;;;;5013388;28;20056;-65
2022/10/08 09:49:26;;;;;;;14.75;3.03;;;12.60;99.90;;;;;;5039514;28;20053;-66
2022/10/08 09:51:53;;;;;;;9.38;1.85;;;12.60;99.90;;;;;;5037998;28;20055;-66
2022/10/08 09:54:26;;;;;;;9.73;1.73;;;12.60;99.90;;;;;;5027688;28;20053;-66
2022/10/08 09:56:55;;;;;;;16.93;2.43;;;12.70;99.90;;;;;;5012125;28;20103;-65
2022/10/08 09:59:24;;;;;;;16.13;2.20;;;12.70;99.90;;;;;;5044190;28;20128;-65
2022/10/08 10:01:52;;;;;;;9.88;1.50;;;12.70;99.90;;;;;;5039926;28;20052;-65
2022/10/08 10:04:39;;;;;;;14.63;2.80;;;12.70;99.90;;;;;;5029043;28;20153;-66
2022/10/08 10:07:06;;;;;;;12.43;2.00;;;12.80;99.90;;;;;;5037196;28;20045;-66
2022/10/08 10:09:32;;;;;;;7.90;1.77;;;12.90;99.90;;;;;;5011590;28;20053;-66
2022/10/08 10:12:13;;;;;;;8.50;1.85;;;13.00;99.90;;;;;;5022599;28;20053;-65
2022/10/08 10:14:48;;;;;;;8.07;2.10;;;13.00;99.90;;;;;;4995826;28;20103;-67
2022/10/08 10:17:20;;;;;;;10.68;1.95;;;12.90;99.90;;;;;;5010529;28;20049;-66
2022/10/08 10:19:54;;;;;;;14.35;2.28;;;12.90;99.90;;;;;;5011255;28;20421;-65
2022/10/08 10:22:34;;;;;;;8.13;2.08;;;13.00;99.90;;;;;;5011118;28;20042;-66
2022/10/08 10:25:05;;;;;;;14.68;2.13;;;13.10;99.90;;;;;;5018279;28;20071;-66
2022/10/08 10:27:38;;;;;;;10.13;2.28;;;13.20;99.90;;;;;;5010815;28;20049;-65
2022/10/08 10:30:25;;;;;;;9.53;1.57;;;13.30;99.90;;;;;;5030654;28;20516;-65
2022/10/08 10:32:57;;;;;;;5.07;1.58;;;13.20;99.90;;;;;;5005693;28;20050;-65
2022/10/08 10:35:27;;;;;;;11.40;1.73;;;13.30;99.90;;;;;;4978964;28;20053;-65
2022/10/08 10:38:14;;;;;;;14.18;3.22;;;13.30;99.90;;;;;;4993381;28;20080;-66
2022/10/08 10:40:44;;;;;;;12.18;2.97;;;13.30;99.90;;;;;;5000818;28;20053;-65
2022/10/08 10:43:19;;;;;;;9.40;2.20;;;13.40;99.90;;;;;;5020806;28;20048;-66
2022/10/08 10:45:58;;;;;;;15.40;2.35;;;13.40;99.90;;;;;;5011768;28;20473;-67
2022/10/08 10:48:25;;;;;;;11.52;1.85;;;13.40;99.90;;;;;;5015505;28;20090;-65
2022/10/08 10:51:03;;;;;;;10.07;1.90;;;13.50;99.90;;;;;;5047250;28;20510;-66
2022/10/08 10:53:58;;;;;;;9.65;1.65;;;13.60;99.90;;;;;;5024675;28;20080;-65
2022/10/08 10:56:30;;;;;;;12.45;1.95;;;13.60;99.90;;;;;;5045503;28;20045;-66
2022/10/08 10:59:16;;;;;;;4.57;1.60;;;13.60;99.90;;;;;;5021420;28;20060;-66
2022/10/08 11:02:08;;;;;;;8.88;1.90;;;13.70;99.90;;;;;;5029374;28;20045;-66
2022/10/08 11:05:00;;;;;;;11.15;1.67;;;13.70;99.90;;;;;;5018794;28;20049;-65
2022/10/08 11:07:48;;;;;;;8.65;1.58;;;13.80;99.90;;;;;;5024352;28;20045;-65
2022/10/08 11:10:31;;;;;;;6.25;1.90;;;13.90;99.90;;;;;;5036680;28;20072;-66
2022/10/08 11:13:16;;;;;;;16.33;2.83;;;13.90;99.90;;;;;;5041584;28;20148;-65
2022/10/08 11:16:09;;;;;;;10.45;2.28;;;13.80;99.90;;;;;;5011882;28;20050;-65
2022/10/08 11:18:58;;;;;;;8.57;1.55;;;13.80;99.90;;;;;;5020783;28;20486;-66
2022/10/08 11:21:34;;;;;;;15.43;2.13;;;13.90;99.90;;;;;;5003300;28;20065;-65
2022/10/08 11:24:37;;;;;;;10.38;1.70;;;13.90;99.90;;;;;;5038669;28;20127;-65
2022/10/08 11:27:44;;;;;;;10.23;1.23;;;14.00;99.90;;;;;;5037260;28;20448;-65
2022/10/08 11:30:20;;;;;;;8.88;1.95;;;14.00;99.90;;;;;;4940246;29;20083;-66
2022/10/08 11:32:54;;;;;;;9.63;1.90;;;14.00;99.90;;;;;;4946710;29;20059;-66
2022/10/08 11:35:31;;;;;;;15.00;2.35;;;14.10;99.90;;;;;;4972661;28;20064;-66
2022/10/08 11:38:11;;;;;;;5.50;2.33;;;14.20;99.90;;;;;;5012337;28;20381;-66
2022/10/08 11:40:48;;;;;;;24.48;3.90;;;14.30;99.90;;;;;;5017283;28;20080;-65
2022/10/08 11:43:23;;;;;;;14.57;2.25;;;14.30;99.90;;;;;;5024647;28;20049;-66
2022/10/08 11:46:19;;;;;;;10.52;1.55;;;14.40;99.90;;;;;;5036640;28;20461;-65
2022/10/08 11:48:46;;;;;;;16.00;1.95;;;14.40;99.90;;;;;;5035976;28;20049;-65
2022/10/08 11:51:19;;;;;;;8.88;2.47;;;14.50;99.90;;;;;;5020488;28;20057;-65
2022/10/08 11:54:03;;;;;;;8.93;1.77;;;14.60;99.90;;;;;;5035593;28;20324;-65
2022/10/08 11:56:31;;;;;;;11.07;1.75;;;14.60;99.90;;;;;;5041764;28;20041;-65
2022/10/08 11:59:00;;;;;;;7.50;2.33;;;14.60;99.90;;;;;;5023566;28;20049;-65
2022/10/08 12:01:27;;;;;;;10.48;1.55;;;14.70;99.90;;;;;;5016371;28;20055;-66
2022/10/08 12:04:07;;;;;;;9.57;1.95;;;14.80;99.90;;;;;;5040031;28;20077;-65
2022/10/08 12:06:34;;;;;;;6.20;1.65;;;14.80;99.90;;;;;;5003004;28;20156;-66
2022/10/08 12:09:03;;;;;;;10.07;1.77;;;14.80;99.90;;;;;;5016955;28;20059;-65
2022/10/08 12:11:38;;;;;;;8.90;1.80;;;14.80;99.90;;;;;;5039998;28;20059;-66
2022/10/08 12:14:11;;;;;;;9.85;1.73;;;14.90;99.90;;;;;;5049500;28;20049;-66
2022/10/08 12:16:47;;;;;;;9.05;1.58;;;14.90;99.90;;;;;;5039542;28;20191;-65
2022/10/08 12:22:02;;;;;;;11.45;1.80;;;15.00;99.90;;;;;;5041311;28;20456;-66
2022/10/08 12:24:38;;;;;;;10.40;1.70;;;15.00;99.90;;;;;;5046559;28;20413;-66
2022/10/08 12:27:17;;;;;;;11.25;1.70;;;15.10;99.90;;;;;;5040275;28;20084;-66
2022/10/08 12:30:00;;;;;;;5.60;1.33;;;15.20;99.80;;;;;;5039710;28;20063;-65
2022/10/08 12:32:45;;;;;;;8.93;1.50;;;15.10;99.90;;;;;;5022710;28;20053;-67
2022/10/08 12:35:25;;;;;;;9.55;3.10;;;15.20;99.90;;;;;;5038770;28;20045;-65
2022/10/08 12:38:22;;;;;;;9.98;2.67;;;15.20;99.90;;;;;;5038915;28;20507;-65
2022/10/08 12:40:51;;;;;;;10.38;2.15;;;15.30;95.90;;;;;;5023260;28;20052;-65
2022/10/08 12:43:37;;;;;;;11.88;3.05;;;15.30;95.50;;;;;;5023222;28;20505;-67
2022/10/08 12:46:40;;;;;;;6.50;1.20;;;15.30;97.90;;;;;;5041127;28;20503;-66
2022/10/08 12:49:28;;;;;;;7.20;1.55;;;15.30;96.10;;;;;;5033498;28;20053;-66
2022/10/08 12:52:14;;;;;;;10.75;1.70;;;15.50;98.60;;;;;;5032569;28;20069;-67
2022/10/08 12:54:49;;;;;;;6.38;1.40;;;15.50;99.90;;;;;;5018980;28;20493;-65
2022/10/08 12:57:36;;;;;;;6.40;1.75;;;15.50;98.80;;;;;;5006484;28;20164;-65
2022/10/08 13:00:07;;;;;;;5.63;1.35;;;15.60;92.20;;;;;;5012414;28;20580;-64
2022/10/08 13:02:42;;;;;;;8.55;1.80;;;15.50;98.20;;;;;;5036475;28;20156;-64
2022/10/08 13:05:28;;;;;;;7.47;1.80;;;15.50;94.20;;;;;;5023356;28;20056;-65
2022/10/08 13:07:56;;;;;;;10.30;1.42;;;15.50;90.40;;;;;;5015729;28;20044;-66
2022/10/08 13:10:27;;;;;;;12.15;2.20;;;15.40;94.10;;;;;;5039250;28;20052;-65
2022/10/08 13:13:05;;;;;;;6.60;1.55;;;15.50;91.60;;;;;;5024660;28;20045;-65
2022/10/08 13:15:32;;;;;;;7.93;1.33;;;15.60;92.00;;;;;;5040460;28;20056;-65